Time;durP1;ratioP1;P1;durP2;ratioP2;P2;SDS_P1;SDS_P2;PMS_P1;PMS_P2;Temp;Humidity;BMP_temperature;BMP_pressure;BME280_temperature;BME280_humidity;BME280_pressure;Samples;Min_cycle;Max_cycle;Signal;HPM_P1;HPM_P2
2022/01/23 00:02:15;;;;;;;19.48;15.40;;;;;;;6.25;100.00;103463.44;4862440;29;20503;-45
2022/01/23 00:04:43;;;;;;;22.50;14.75;;;;;;;6.25;100.00;103463.44;4862346;29;20053;-46
2022/01/23 00:07:13;;;;;;;17.40;13.60;;;;;;;6.25;100.00;103458.00;4862132;29;20484;-45
2022/01/23 00:09:41;;;;;;;21.92;14.70;;;;;;;6.24;100.00;103456.34;4862464;29;20045;-47
2022/01/23 00:12:14;;;;;;;20.58;14.38;;;;;;;6.24;100.00;103456.34;4861907;29;20068;-45
2022/01/23 00:17:34;;;;;;;;;;;;;;;6.26;100.00;103457.00;4862354;29;20505;-44
2022/01/23 00:20:08;;;;;;;18.48;13.27;;;;;;;6.27;100.00;103450.56;4862033;29;20018;-46
2022/01/23 00:30:45;;;;;;;21.23;14.40;;;;;;;6.26;100.00;103439.94;4845537;29;20418;-45
2022/01/23 00:33:14;;;;;;;20.77;15.48;;;;;;;6.24;100.00;103445.50;4861936;29;20069;-47
2022/01/23 00:35:46;;;;;;;19.48;14.68;;;;;;;6.25;100.00;103440.94;4861007;29;20045;-48
2022/01/23 00:38:14;;;;;;;20.60;14.88;;;;;;;6.24;100.00;103444.69;4861862;29;20137;-46
2022/01/23 00:40:44;;;;;;;20.35;15.25;;;;;;;6.23;100.00;103457.38;4861904;29;20053;-46
2022/01/23 00:43:17;;;;;;;21.75;14.43;;;;;;;6.23;100.00;103454.66;4861495;29;20036;-47
2022/01/23 00:45:50;;;;;;;19.58;14.77;;;;;;;6.23;100.00;103453.78;4861575;29;20051;-47
2022/01/23 00:48:23;;;;;;;19.95;14.98;;;;;;;6.23;100.00;103457.38;4861261;29;20420;-45
2022/01/23 00:50:51;;;;;;;19.88;14.05;;;;;;;6.23;100.00;103451.09;4861629;29;20518;-46
2022/01/23 00:53:18;;;;;;;19.38;14.40;;;;;;;6.22;100.00;103449.41;4860671;29;20061;-45
2022/01/23 00:55:47;;;;;;;19.25;14.82;;;;;;;6.23;100.00;103443.84;4859863;29;20045;-43
2022/01/23 00:58:16;;;;;;;19.48;15.07;;;;;;;6.24;100.00;103437.38;4844629;29;20417;-42
2022/01/23 01:00:44;;;;;;;20.58;15.25;;;;;;;6.24;100.00;103437.38;4844920;29;20053;-43
2022/01/23 01:03:12;;;;;;;23.83;14.57;;;;;;;6.25;100.00;103436.34;4860875;29;20053;-43
2022/01/23 01:05:39;;;;;;;18.88;14.38;;;;;;;6.25;100.00;103430.94;4861728;29;20068;-42
2022/01/23 01:08:07;;;;;;;20.77;15.20;;;;;;;6.25;100.00;103428.25;4861080;29;20090;-43
2022/01/23 01:10:54;;;;;;;21.45;15.45;;;;;;;6.27;100.00;103438.91;4861228;29;20042;-43
2022/01/23 01:13:24;;;;;;;19.25;14.75;;;;;;;6.27;100.00;103439.75;4844456;29;20045;-45
2022/01/23 01:16:24;;;;;;;19.10;14.77;;;;;;;6.26;100.00;103443.47;4844783;29;20416;-45
2022/01/23 01:32:55;;;;;;;18.02;14.48;;;;;;;6.30;100.00;103438.53;4841469;29;20052;-49
2022/01/23 01:37:52;;;;;;;18.73;14.43;;;;;;;6.31;100.00;103446.50;4853430;29;20049;-47
2022/01/23 01:40:21;;;;;;;19.52;15.20;;;;;;;6.31;100.00;103445.66;4860527;29;20057;-46
2022/01/23 01:42:49;;;;;;;18.95;14.73;;;;;;;6.31;100.00;103453.78;4844587;29;20064;-49
2022/01/23 01:45:27;;;;;;;22.15;16.00;;;;;;;6.29;100.00;103448.53;4844267;29;20053;-46
2022/01/23 01:48:01;;;;;;;18.88;15.55;;;;;;;6.29;99.61;103448.53;4843933;29;20057;-47
2022/01/23 01:50:31;;;;;;;19.77;15.73;;;;;;;6.28;100.00;103464.97;4844268;29;20189;-48
2022/01/23 01:53:02;;;;;;;18.17;14.82;;;;;;;6.28;100.00;103459.56;4843522;29;20457;-47
2022/01/23 01:55:39;;;;;;;21.17;15.65;;;;;;;6.28;100.00;103463.09;4843968;29;20057;-47
2022/01/23 01:58:13;;;;;;;18.33;15.00;;;;;;;6.29;100.00;103469.34;4829904;29;20011;-45
2022/01/23 02:00:56;;;;;;;20.25;15.70;;;;;;;6.29;99.83;103459.38;4860381;29;20053;-47
2022/01/23 02:09:16;;;;;;;23.27;15.77;;;;;;;6.29;100.00;103436.88;4843398;29;20523;-48
2022/01/23 02:17:28;;;;;;;20.27;15.60;;;;;;;6.28;100.00;103408.97;4859007;29;20077;-45
2022/01/23 02:50:55;;;;;;;22.10;15.07;;;;;;;6.24;100.00;103418.44;4773603;30;20452;-45
2022/01/23 02:53:53;;;;;;;21.85;15.25;;;;;;;6.23;99.63;103414.06;4769775;30;20464;-45
2022/01/23 02:56:32;;;;;;;18.52;14.15;;;;;;;6.24;99.41;103418.44;4767320;30;20143;-46
2022/01/23 02:59:12;;;;;;;19.17;15.40;;;;;;;6.24;99.58;103410.31;4777551;29;20047;-43
2022/01/23 03:04:51;;;;;;;18.95;14.32;;;;;;;6.25;99.59;103406.56;4797829;29;20072;-46
2022/01/23 03:10:44;;;;;;;19.90;14.90;;;;;;;6.23;99.89;103403.22;4843261;29;20049;-46
2022/01/23 03:24:01;;;;;;;18.85;15.45;;;;;;;6.24;99.70;103423.84;4846512;29;20583;-47
2022/01/23 03:30:16;;;;;;;;;;;;;;;6.26;99.70;103412.84;4854800;29;20134;-44
2022/01/23 03:32:47;;;;;;;17.02;13.40;;;;;;;6.23;98.98;103405.94;4862444;29;19985;-46
2022/01/23 03:35:16;;;;;;;16.38;13.75;;;;;;;6.24;99.67;103410.31;4862631;29;20204;-47
2022/01/23 03:37:43;;;;;;;20.52;14.35;;;;;;;6.24;99.50;103407.63;4862960;29;20404;-45
2022/01/23 03:40:11;;;;;;;19.50;13.35;;;;;;;6.25;99.14;103408.44;4846115;29;20041;-46
2022/01/23 03:42:41;;;;;;;18.38;13.95;;;;;;;6.24;98.92;103415.72;4862948;29;20046;-52
2022/01/23 03:49:30;;;;;;;18.58;14.35;;;;;;;6.24;98.99;103423.00;4846389;29;20390;-46
2022/01/23 03:50:47;;;;;;;18.88;13.80;;;;;;;6.25;99.46;103436.34;4846041;29;20053;-47
2022/01/23 03:53:33;;;;;;;20.80;14.13;;;;;;;6.23;98.98;103440.25;4861414;29;20140;-49
2022/01/23 03:56:01;;;;;;;19.85;14.02;;;;;;;6.19;99.06;103437.06;4845247;29;20057;-48
2022/01/23 03:58:30;;;;;;;18.20;13.27;;;;;;;6.22;99.07;103436.72;4846075;29;20135;-46
2022/01/23 04:00:58;;;;;;;21.27;14.23;;;;;;;6.24;99.64;103445.50;4846200;29;20052;-47
2022/01/23 04:03:27;;;;;;;19.48;14.02;;;;;;;6.25;99.43;103446.34;4846023;29;20041;-46
2022/01/23 04:05:54;;;;;;;23.05;14.25;;;;;;;6.24;98.91;103453.63;4860880;29;20046;-46
2022/01/23 04:08:22;;;;;;;19.33;14.00;;;;;;;6.19;98.83;103454.16;4862476;29;20073;-46
2022/01/23 04:10:50;;;;;;;17.45;13.52;;;;;;;6.18;99.24;103457.03;4845819;29;20290;-47
2022/01/23 04:13:30;;;;;;;17.25;13.73;;;;;;;6.15;99.14;103451.97;4845991;29;20073;-44
2022/01/23 04:45:41;;;;;;;17.27;13.00;;;;;;;6.23;98.85;103445.69;4842067;29;20045;-47
2022/01/23 04:48:52;;;;;;;18.85;13.57;;;;;;;6.24;99.45;103433.84;4848303;29;20056;-45
2022/01/23 04:59:45;;;;;;;;;;;;;;;6.24;99.21;103439.25;4861636;29;20072;-47
2022/01/23 05:02:52;;;;;;;15.57;12.43;;;;;;;6.22;99.33;103447.53;4844349;29;19931;-43
2022/01/23 05:05:05;;;;;;;16.63;12.93;;;;;;;6.23;99.14;103443.84;4861507;29;20080;-47
2022/01/23 05:08:08;;;;;;;17.50;13.05;;;;;;;6.24;98.69;103445.50;4822386;29;20057;-46
2022/01/23 05:10:58;;;;;;;20.90;12.73;;;;;;;6.25;99.13;103441.78;4792362;29;20055;-50
2022/01/23 05:13:46;;;;;;;16.00;12.50;;;;;;;6.27;98.73;103450.56;4784328;29;20058;-48
2022/01/23 05:16:15;;;;;;;19.25;13.13;;;;;;;6.29;98.93;103453.94;4804140;29;20481;-46
2022/01/23 05:18:43;;;;;;;19.00;12.60;;;;;;;6.29;98.71;103448.53;4803995;29;20103;-45
2022/01/23 05:23:39;;;;;;;17.13;12.02;;;;;;;6.28;98.77;103451.44;4804991;29;20049;-45
2022/01/23 05:26:07;;;;;;;17.75;12.73;;;;;;;6.28;99.08;103451.44;4822455;29;20442;-46
2022/01/23 05:28:34;;;;;;;15.10;12.23;;;;;;;6.27;99.22;103452.44;4820606;29;20050;-45
2022/01/23 05:31:02;;;;;;;16.17;12.07;;;;;;;6.27;98.93;103444.31;4805318;29;20057;-45
2022/01/23 05:33:30;;;;;;;17.65;13.10;;;;;;;6.25;98.65;103447.19;4821936;29;20042;-45
2022/01/23 05:35:58;;;;;;;18.50;12.98;;;;;;;6.26;99.18;103454.31;4806664;29;20128;-46
2022/01/23 05:38:26;;;;;;;18.30;12.07;;;;;;;6.25;99.11;103451.75;4805296;29;20107;-45
2022/01/23 05:40:57;;;;;;;16.45;12.20;;;;;;;6.24;98.71;103453.63;4820572;29;20042;-46
2022/01/23 05:43:28;;;;;;;19.13;13.25;;;;;;;6.26;99.09;103456.19;4814646;29;20466;-45
2022/01/23 05:45:55;;;;;;;16.02;12.38;;;;;;;6.26;99.05;103454.31;4842485;29;20056;-45
2022/01/23 05:48:46;;;;;;;19.83;12.93;;;;;;;6.27;99.36;103449.72;4851367;29;20074;-45
2022/01/23 05:51:37;;;;;;;23.17;13.70;;;;;;;6.25;98.87;103449.91;4803346;29;20078;-45
2022/01/23 05:54:25;;;;;;;18.08;13.30;;;;;;;6.25;99.45;103463.44;4714498;30;20103;-44
2022/01/23 05:57:13;;;;;;;17.20;12.43;;;;;;;6.26;98.96;103453.47;4714406;30;20088;-45
2022/01/23 05:59:55;;;;;;;17.23;13.40;;;;;;;6.26;99.08;103448.91;4714584;30;20049;-46
2022/01/23 06:02:22;;;;;;;18.25;13.00;;;;;;;6.25;98.58;103447.19;4715034;30;20072;-46
2022/01/23 06:04:50;;;;;;;19.20;12.65;;;;;;;6.25;99.14;103440.94;4714975;30;20571;-47
2022/01/23 06:07:31;;;;;;;19.23;13.45;;;;;;;6.23;98.98;103446.53;4700336;30;20071;-45
2022/01/23 06:10:04;;;;;;;17.45;13.10;;;;;;;6.23;99.33;103440.25;4714600;30;20639;-43
2022/01/23 06:12:33;;;;;;;17.38;13.25;;;;;;;6.23;98.81;103449.25;4715053;30;20476;-47
2022/01/23 06:15:01;;;;;;;17.45;13.35;;;;;;;6.21;99.30;103451.28;4700659;30;20437;-46
2022/01/23 06:17:29;;;;;;;20.38;12.95;;;;;;;6.23;99.43;103459.22;4714675;30;20103;-44
2022/01/23 06:20:15;;;;;;;;;;;;;;;6.23;99.50;103460.09;4714843;30;20057;-47
2022/01/23 06:23:02;;;;;;;19.73;14.98;;;;;;;6.20;99.60;103465.81;4714725;30;19933;-44
2022/01/23 06:25:56;;;;;;;18.60;14.38;;;;;;;6.16;99.48;103461.78;4713928;30;20068;-45
2022/01/23 06:28:54;;;;;;;20.67;15.20;;;;;;;6.13;99.40;103459.41;4707380;30;20064;-43
2022/01/23 06:31:22;;;;;;;21.90;15.57;;;;;;;6.09;99.64;103463.50;4793455;29;20523;-46
2022/01/23 06:33:50;;;;;;;26.58;15.40;;;;;;;6.10;99.70;103459.75;4860457;29;20054;-45
2022/01/23 06:36:17;;;;;;;18.05;13.73;;;;;;;6.12;100.00;103468.56;4860808;29;20524;-47
2022/01/23 06:38:46;;;;;;;20.23;13.27;;;;;;;6.15;99.94;103462.78;4843389;29;20062;-46
2022/01/23 06:41:15;;;;;;;19.77;13.52;;;;;;;6.17;99.90;103466.19;4843072;29;20188;-46
2022/01/23 06:43:51;;;;;;;20.17;14.70;;;;;;;6.18;99.74;103466.00;4860389;29;20137;-49
2022/01/23 06:46:25;;;;;;;18.80;14.82;;;;;;;6.18;99.96;103463.31;4861139;29;20055;-45
2022/01/23 06:48:52;;;;;;;18.13;13.45;;;;;;;6.19;99.40;103474.97;4847334;29;20416;-46
2022/01/23 06:51:21;;;;;;;18.02;13.50;;;;;;;6.22;99.68;103476.50;4861843;29;20057;-48
2022/01/23 06:53:49;;;;;;;19.83;13.90;;;;;;;6.23;100.00;103473.63;4847296;29;20050;-50
2022/01/23 06:56:17;;;;;;;19.50;14.43;;;;;;;6.24;99.34;103475.28;4847606;29;20061;-48
2022/01/23 06:58:46;;;;;;;19.40;14.57;;;;;;;6.26;99.23;103484.09;4847223;29;20102;-46
2022/01/23 07:01:14;;;;;;;20.33;14.40;;;;;;;6.27;99.53;103482.22;4846550;29;20059;-47
2022/01/23 07:03:55;;;;;;;16.85;13.80;;;;;;;6.26;99.24;103488.66;4846762;29;20563;-48
2022/01/23 07:06:52;;;;;;;19.58;14.85;;;;;;;6.25;99.23;103486.97;4806273;29;20049;-46
2022/01/23 07:09:39;;;;;;;22.60;14.60;;;;;;;6.23;99.33;103492.56;4769917;30;20109;-43
2022/01/23 07:12:30;;;;;;;21.50;14.45;;;;;;;6.23;99.09;103494.41;4699901;30;20058;-46
2022/01/23 07:15:09;;;;;;;21.05;14.82;;;;;;;6.21;98.87;103499.19;4700039;30;20202;-48
2022/01/23 07:17:58;;;;;;;19.33;14.55;;;;;;;6.21;99.41;103493.75;4685589;30;20045;-45
2022/01/23 07:20:30;;;;;;;21.95;14.60;;;;;;;6.20;99.10;103498.31;4685004;30;20085;-47
2022/01/23 07:23:09;;;;;;;20.00;13.77;;;;;;;6.21;99.17;103500.00;4668319;30;20168;-47
2022/01/23 07:25:39;;;;;;;20.95;14.18;;;;;;;6.20;99.49;103501.00;4668315;30;20086;-47
2022/01/23 07:28:12;;;;;;;16.92;13.50;;;;;;;6.22;99.25;103509.81;4682444;30;20066;-48
2022/01/23 07:30:47;;;;;;;19.40;14.68;;;;;;;6.24;99.16;103515.06;4690484;30;20081;-46
2022/01/23 07:33:15;;;;;;;20.38;15.40;;;;;;;6.26;99.59;103518.44;4699556;30;20066;-49
2022/01/23 07:35:43;;;;;;;17.60;14.95;;;;;;;6.26;99.45;103522.00;4684888;30;20071;-50
2022/01/23 07:38:16;;;;;;;18.88;14.13;;;;;;;6.27;99.13;103526.38;4699110;30;20069;-50
2022/01/23 07:40:48;;;;;;;19.13;14.88;;;;;;;6.26;99.63;103530.13;4699110;30;20053;-48
2022/01/23 07:43:32;;;;;;;20.65;15.32;;;;;;;6.26;99.24;103535.53;4705433;30;20053;-45
2022/01/23 07:46:19;;;;;;;18.27;14.85;;;;;;;6.26;99.16;103540.94;4749214;30;20051;-46
2022/01/23 07:49:04;;;;;;;20.25;14.70;;;;;;;6.26;99.22;103535.53;4788586;29;20053;-48
2022/01/23 07:51:38;;;;;;;21.05;15.27;;;;;;;6.26;99.31;103540.94;4861348;29;20046;-44
2022/01/23 07:54:32;;;;;;;22.40;15.88;;;;;;;6.26;99.20;103532.00;4826973;29;20057;-49
2022/01/23 07:57:26;;;;;;;20.50;15.15;;;;;;;6.24;98.71;103529.44;4855771;29;20056;-45
2022/01/23 08:00:12;;;;;;;;;;;;;;;6.24;98.91;103540.28;4862730;29;20061;-47
2022/01/23 08:02:43;;;;;;;21.40;15.82;;;;;;;6.25;99.47;103538.41;4828383;29;20264;-44
2022/01/23 08:05:11;;;;;;;18.60;14.13;;;;;;;6.25;99.12;103544.66;4852772;29;20042;-49
2022/01/23 08:07:46;;;;;;;19.25;14.32;;;;;;;6.25;99.37;103539.25;4845849;29;20079;-48
2022/01/23 08:10:24;;;;;;;19.15;13.10;;;;;;;6.26;99.04;103557.19;4845491;29;20041;-46
2022/01/23 08:12:52;;;;;;;21.00;14.70;;;;;;;6.27;99.18;103547.19;4862211;29;20061;-48
2022/01/23 08:15:19;;;;;;;20.10;15.57;;;;;;;6.24;99.23;103545.69;4861017;29;20423;-49
2022/01/23 08:17:47;;;;;;;17.85;14.15;;;;;;;6.23;99.99;103552.13;4862231;29;20046;-47
2022/01/23 08:20:14;;;;;;;21.30;16.35;;;;;;;6.21;99.61;103548.75;4861840;29;20061;-45
2022/01/23 08:22:42;;;;;;;21.48;16.50;;;;;;;6.18;99.37;103549.06;4861551;29;20156;-45
2022/01/23 08:25:10;;;;;;;22.50;16.15;;;;;;;6.17;100.00;103548.22;4862001;29;20045;-48
2022/01/23 08:27:38;;;;;;;22.85;17.45;;;;;;;6.15;100.00;103549.41;4862129;29;20136;-48
2022/01/23 08:30:06;;;;;;;27.20;18.85;;;;;;;6.13;99.99;103551.44;4861512;29;20531;-48
2022/01/23 08:32:34;;;;;;;29.23;20.20;;;;;;;6.11;100.00;103553.47;4843913;29;20054;-48
2022/01/23 08:35:04;;;;;;;25.13;17.35;;;;;;;6.13;100.00;103556.84;4862136;29;20411;-48
2022/01/23 08:37:32;;;;;;;24.15;17.70;;;;;;;6.12;100.00;103556.03;4862067;29;20067;-47
2022/01/23 08:40:02;;;;;;;21.88;17.60;;;;;;;6.15;100.00;103552.13;4861659;29;20124;-47
2022/01/23 08:42:31;;;;;;;25.48;17.42;;;;;;;6.17;100.00;103567.19;4861543;29;20462;-47
2022/01/23 08:44:58;;;;;;;22.17;17.50;;;;;;;6.19;99.97;103557.03;4862002;29;20052;-49
2022/01/23 08:47:26;;;;;;;23.40;16.88;;;;;;;6.24;100.00;103563.78;4861742;29;20048;-47
2022/01/23 08:49:53;;;;;;;22.83;16.23;;;;;;;6.26;99.80;103567.19;4861958;29;20045;-49
2022/01/23 08:52:21;;;;;;;19.35;15.93;;;;;;;6.27;99.65;103567.00;4861228;29;20050;-48
2022/01/23 08:54:50;;;;;;;20.45;16.70;;;;;;;6.28;99.59;103571.41;4861269;29;20076;-49
2022/01/23 08:57:19;;;;;;;22.27;16.13;;;;;;;6.29;99.79;103572.25;4861156;29;20053;-49
2022/01/23 08:59:47;;;;;;;25.30;16.98;;;;;;;6.28;99.37;103573.28;4861454;29;20041;-49
2022/01/23 09:02:16;;;;;;;24.85;16.38;;;;;;;6.26;99.95;103581.56;4860903;29;20042;-48
2022/01/23 09:04:44;;;;;;;23.70;16.30;;;;;;;6.27;99.87;103585.94;4861380;29;20416;-49
2022/01/23 09:07:12;;;;;;;22.27;16.40;;;;;;;6.28;99.73;103573.28;4861310;29;20504;-48
2022/01/23 09:09:41;;;;;;;22.33;16.77;;;;;;;6.29;99.69;103567.66;4860984;29;20053;-47
2022/01/23 09:12:26;;;;;;;22.05;16.73;;;;;;;6.31;100.00;103567.50;4860660;29;20041;-48
2022/01/23 09:14:53;;;;;;;27.17;18.40;;;;;;;6.33;100.00;103574.44;4861333;29;20045;-47
2022/01/23 09:17:21;;;;;;;25.20;19.30;;;;;;;6.36;100.00;103562.41;4860856;29;20140;-49
2022/01/23 09:19:51;;;;;;;26.73;20.63;;;;;;;6.36;100.00;103567.84;4861355;29;20436;-48
2022/01/23 09:22:19;;;;;;;25.67;19.52;;;;;;;6.36;100.00;103563.25;4860530;29;20076;-48
2022/01/23 09:24:46;;;;;;;27.55;21.50;;;;;;;6.39;100.00;103562.06;4862153;29;20109;-50
2022/01/23 09:27:19;;;;;;;26.08;20.80;;;;;;;6.39;100.00;103565.63;4861441;29;20056;-47
2022/01/23 09:29:51;;;;;;;26.48;20.30;;;;;;;6.39;100.00;103568.31;4861281;29;20411;-49
2022/01/23 09:32:20;;;;;;;24.42;18.15;;;;;;;6.40;100.00;103570.03;4860656;29;20045;-50
2022/01/23 09:34:48;;;;;;;22.45;18.63;;;;;;;6.42;100.00;103571.72;4860658;29;20042;-49
2022/01/23 09:37:17;;;;;;;27.70;18.80;;;;;;;6.40;100.00;103570.03;4860678;29;20493;-47
2022/01/23 09:39:50;;;;;;;23.73;18.13;;;;;;;6.42;100.00;103571.72;4860669;29;20041;-48
2022/01/23 09:42:18;;;;;;;25.20;18.75;;;;;;;6.42;100.00;103571.72;4860310;29;20056;-47
2022/01/23 09:44:51;;;;;;;27.02;19.23;;;;;;;6.44;100.00;103577.81;4860892;29;20535;-51
2022/01/23 09:47:20;;;;;;;24.50;18.58;;;;;;;6.44;100.00;103581.34;4860703;29;20052;-47
2022/01/23 09:49:50;;;;;;;23.58;18.77;;;;;;;6.45;100.00;103587.63;4861114;29;20057;-48
2022/01/23 09:52:19;;;;;;;31.05;20.27;;;;;;;6.47;100.00;103586.44;4860578;29;20041;-50
2022/01/23 09:54:56;;;;;;;26.38;20.23;;;;;;;6.47;100.00;103589.16;4842224;29;20062;-47
2022/01/23 09:57:28;;;;;;;23.25;19.65;;;;;;;6.46;100.00;103594.72;4840918;29;20061;-46
2022/01/23 09:59:57;;;;;;;26.75;20.50;;;;;;;6.45;100.00;103590.34;4842161;29;20117;-49
2022/01/23 10:02:26;;;;;;;27.13;20.65;;;;;;;6.46;100.00;103584.72;4843925;29;20404;-49
2022/01/23 10:04:58;;;;;;;25.00;19.98;;;;;;;6.46;100.00;103583.91;4860784;29;20046;-48
2022/01/23 10:07:27;;;;;;;24.40;19.88;;;;;;;6.46;100.00;103592.03;4843890;29;20046;-50
2022/01/23 10:10:07;;;;;;;25.77;20.05;;;;;;;6.46;100.00;103587.44;4844241;29;20041;-49
2022/01/23 10:12:39;;;;;;;22.20;18.02;;;;;;;6.49;100.00;103583.53;4843528;29;20093;-46
2022/01/23 10:15:07;;;;;;;28.67;20.10;;;;;;;6.50;100.00;103590.66;4860216;29;20046;-49
2022/01/23 10:17:36;;;;;;;29.52;21.15;;;;;;;6.53;100.00;103583.03;4860386;29;20049;-48
2022/01/23 10:20:08;;;;;;;25.83;20.80;;;;;;;6.54;100.00;103582.03;4860305;29;20079;-48
2022/01/23 10:22:36;;;;;;;26.85;21.20;;;;;;;6.55;100.00;103586.41;4863640;29;20048;-47
2022/01/23 10:25:10;;;;;;;29.55;21.50;;;;;;;6.56;100.00;103590.81;4863934;29;20045;-47
2022/01/23 10:28:00;;;;;;;28.60;21.48;;;;;;;6.57;100.00;103586.25;4863941;29;20046;-48
2022/01/23 10:30:33;;;;;;;28.02;22.08;;;;;;;6.58;100.00;103582.50;4863884;29;20045;-48
2022/01/23 10:33:10;;;;;;;32.63;24.00;;;;;;;6.59;100.00;103581.47;4863290;29;20085;-48
2022/01/23 10:35:56;;;;;;;31.05;24.00;;;;;;;6.58;100.00;103582.50;4863787;29;20445;-47
2022/01/23 10:38:25;;;;;;;;;;;;;;;6.60;100.00;103588.59;4864375;29;20457;-47
2022/01/23 10:41:15;;;;;;;27.95;21.70;;;;;;;6.61;100.00;103584.88;4863215;29;19928;-48
2022/01/23 10:49:53;;;;;;;28.73;22.40;;;;;;;6.62;100.00;103583.88;4863956;29;20217;-50
2022/01/23 10:52:48;;;;;;;30.60;23.05;;;;;;;6.64;100.00;103584.53;4863550;29;20041;-47
2022/01/23 10:55:32;;;;;;;29.63;23.42;;;;;;;6.63;100.00;103585.53;4860518;29;20064;-48
2022/01/23 10:58:03;;;;;;;27.20;22.73;;;;;;;6.59;100.00;103581.47;4862944;29;20484;-46
2022/01/23 11:00:37;;;;;;;27.10;22.30;;;;;;;6.60;100.00;103578.59;4863049;29;20074;-44
2022/01/23 11:03:20;;;;;;;29.33;23.05;;;;;;;6.63;100.00;103574.69;4863032;29;20164;-46
2022/01/23 11:05:48;;;;;;;29.13;23.45;;;;;;;6.65;100.00;103580.78;4862927;29;20469;-43
2022/01/23 11:08:21;;;;;;;30.15;23.55;;;;;;;6.67;100.00;103576.06;4863254;29;20045;-46
2022/01/23 11:10:58;;;;;;;29.63;23.77;;;;;;;6.68;100.00;103572.31;4863582;29;20042;-47
2022/01/23 11:19:23;;;;;;;28.38;22.88;;;;;;;6.71;100.00;103566.56;4863538;29;20056;-47
2022/01/23 11:21:52;;;;;;;31.35;24.60;;;;;;;6.71;100.00;103561.16;4863340;29;20058;-49
2022/01/23 11:24:21;;;;;;;28.88;23.27;;;;;;;6.67;100.00;103564.38;4863159;29;20084;-51
2022/01/23 11:26:58;;;;;;;28.65;23.92;;;;;;;6.67;100.00;103564.38;4846145;29;20049;-48
2022/01/23 11:29:26;;;;;;;31.20;24.35;;;;;;;6.70;100.00;103558.59;4846562;29;20052;-47
2022/01/23 11:31:54;;;;;;;27.30;22.45;;;;;;;6.73;100.00;103564.50;4862069;29;20046;-47
2022/01/23 11:34:22;;;;;;;28.63;23.38;;;;;;;6.75;100.00;103559.75;4846682;29;20540;-47
2022/01/23 11:36:51;;;;;;;28.88;22.50;;;;;;;6.78;100.00;103551.31;4862461;29;20046;-49
2022/01/23 11:39:35;;;;;;;26.42;22.92;;;;;;;6.79;100.00;103549.44;4863112;29;20046;-50
2022/01/23 11:56:24;;;;;;;26.08;21.27;;;;;;;6.90;100.00;103535.47;4861981;29;20062;-46
2022/01/23 11:59:13;;;;;;;27.40;21.38;;;;;;;6.92;100.00;103538.00;4862717;29;20049;-45
2022/01/23 12:01:42;;;;;;;27.67;21.77;;;;;;;6.92;100.00;103535.31;4862493;29;20037;-47
2022/01/23 12:04:19;;;;;;;27.13;22.20;;;;;;;6.90;100.00;103531.94;4862255;29;20121;-47
2022/01/23 12:07:15;;;;;;;23.23;17.58;;;;;;;6.89;100.00;103530.25;4862160;29;20401;-46
2022/01/23 12:10:02;;;;;;;24.75;19.13;;;;;;;6.89;100.00;103527.53;4787126;30;20055;-48
2022/01/23 12:12:42;;;;;;;19.13;14.38;;;;;;;6.91;100.00;103530.91;4787597;30;20047;-48
2022/01/23 12:18:16;;;;;;;23.10;19.42;;;;;;;6.94;100.00;103535.97;4787389;30;20059;-48
2022/01/23 12:20:45;;;;;;;22.38;19.23;;;;;;;6.95;100.00;103527.69;4772393;29;20127;-48
2022/01/23 12:23:16;;;;;;;24.65;19.45;;;;;;;6.95;100.00;103518.69;4787050;30;20048;-47
2022/01/23 12:25:55;;;;;;;24.50;20.27;;;;;;;6.94;99.53;103511.59;4787177;30;20488;-48
2022/01/23 12:28:27;;;;;;;22.17;17.83;;;;;;;6.92;100.00;103508.19;4786622;30;20104;-49
2022/01/23 12:30:56;;;;;;;26.83;19.20;;;;;;;6.91;100.00;103520.09;4782678;30;20502;-48
2022/01/23 12:33:42;;;;;;;23.75;19.88;;;;;;;6.89;100.00;103516.69;4776213;29;20096;-46
2022/01/23 12:36:20;;;;;;;27.05;20.42;;;;;;;6.87;100.00;103516.03;4786958;30;20427;-48
2022/01/23 12:38:53;;;;;;;25.33;20.65;;;;;;;6.85;100.00;103516.19;4786235;30;20087;-48
2022/01/23 12:41:25;;;;;;;25.33;21.42;;;;;;;6.86;100.00;103509.78;4786151;30;20059;-47
2022/01/23 12:44:02;;;;;;;24.67;21.15;;;;;;;6.88;100.00;103509.56;4784425;29;20511;-48
2022/01/23 12:46:43;;;;;;;27.45;21.70;;;;;;;6.90;100.00;103505.66;4795202;29;20061;-47
2022/01/23 12:49:33;;;;;;;26.88;20.52;;;;;;;6.90;100.00;103499.41;4842371;29;20064;-48
2022/01/23 12:52:07;;;;;;;25.15;20.95;;;;;;;6.91;100.00;103501.94;4860690;29;20061;-46
2022/01/23 12:54:59;;;;;;;28.40;21.85;;;;;;;6.93;100.00;103501.78;4860938;29;20076;-46
2022/01/23 12:57:41;;;;;;;27.13;22.02;;;;;;;6.89;100.00;103503.16;4845149;29;20056;-46
2022/01/23 13:00:22;;;;;;;26.17;22.38;;;;;;;6.86;100.00;103496.22;4860796;29;20061;-47
2022/01/23 13:02:52;;;;;;;26.95;20.85;;;;;;;6.87;100.00;103495.19;4860798;29;20207;-46
2022/01/23 13:05:20;;;;;;;27.25;21.55;;;;;;;6.87;100.00;103487.06;4861509;29;20056;-48
2022/01/23 13:13:34;;;;;;;27.17;22.38;;;;;;;6.87;100.00;103491.63;4860785;29;20061;-48
2022/01/23 13:35:09;;;;;;;23.35;18.35;;;;;;;6.99;98.79;103493.75;4860623;29;20065;-44
2022/01/23 13:37:39;;;;;;;23.05;18.50;;;;;;;6.99;98.72;103482.06;4844283;29;20059;-45
2022/01/23 13:40:19;;;;;;;24.63;18.90;;;;;;;6.97;98.64;103481.41;4860777;29;20046;-46
2022/01/23 14:02:33;;;;;;;23.13;19.05;;;;;;;6.95;98.21;103475.31;4860501;29;20050;-48
2022/01/23 14:05:07;;;;;;;20.90;17.90;;;;;;;6.96;98.44;103468.88;4843968;29;20065;-47
2022/01/23 14:07:35;;;;;;;25.73;18.80;;;;;;;6.97;98.34;103468.69;4860738;29;20046;-49
2022/01/23 14:10:18;;;;;;;24.27;18.90;;;;;;;7.01;98.92;103469.19;4860368;29;20053;-48
2022/01/23 14:12:47;;;;;;;24.15;18.55;;;;;;;7.02;98.17;103466.31;4860335;29;20046;-47
2022/01/23 14:15:23;;;;;;;21.92;18.20;;;;;;;7.03;98.38;103464.44;4860477;29;20105;-47
2022/01/23 14:18:06;;;;;;;22.33;17.42;;;;;;;7.01;97.71;103452.94;4860358;29;20385;-53
2022/01/23 14:20:43;;;;;;;24.63;18.92;;;;;;;7.01;97.80;103453.78;4859527;29;20048;-49
2022/01/23 14:23:16;;;;;;;22.70;18.33;;;;;;;7.02;97.92;103458.19;4859855;29;20045;-51
2022/01/23 14:25:46;;;;;;;26.65;20.05;;;;;;;7.01;97.70;103459.19;4860300;29;20054;-50
2022/01/23 14:28:16;;;;;;;23.40;19.20;;;;;;;6.98;98.47;103464.97;4862767;29;20038;-48
2022/01/23 14:30:50;;;;;;;23.90;19.23;;;;;;;6.97;97.71;103467.84;4861962;29;20128;-48
2022/01/23 14:33:28;;;;;;;22.88;18.67;;;;;;;6.96;97.84;103475.16;4677966;29;10000486;-45
2022/01/23 14:36:26;;;;;;;24.17;19.38;;;;;;;6.98;98.07;103474.97;4521047;29;10001175;-50
2022/01/23 14:39:08;;;;;;;25.20;20.10;;;;;;;6.98;97.99;103481.25;4856629;29;20108;-50
2022/01/23 14:41:37;;;;;;;27.33;20.20;;;;;;;7.00;98.04;103472.94;4856929;29;20060;-49
2022/01/23 14:44:20;;;;;;;24.25;19.63;;;;;;;7.02;97.86;103477.16;4845700;29;20042;-47
2022/01/23 14:46:50;;;;;;;23.02;19.38;;;;;;;7.04;97.81;103472.38;4854260;29;20041;-49
2022/01/23 14:49:24;;;;;;;25.05;20.17;;;;;;;7.05;97.87;103473.25;4857010;29;20060;-49
2022/01/23 14:51:55;;;;;;;25.02;20.58;;;;;;;7.03;97.73;103472.56;4857137;29;20493;-46
2022/01/23 14:54:25;;;;;;;26.48;19.90;;;;;;;7.02;97.82;103471.75;4855635;29;20058;-51
2022/01/23 14:56:53;;;;;;;25.92;20.63;;;;;;;7.03;98.58;103472.56;4858479;29;20132;-49
2022/01/23 14:59:20;;;;;;;24.30;19.70;;;;;;;7.03;97.96;103478.84;4860218;29;20056;-48
2022/01/23 15:01:48;;;;;;;25.88;21.10;;;;;;;7.04;98.07;103474.25;4843624;29;20045;-48
2022/01/23 15:04:20;;;;;;;24.38;20.27;;;;;;;7.04;98.32;103475.09;4859991;29;20045;-48
2022/01/23 15:06:48;;;;;;;26.88;20.33;;;;;;;7.04;97.87;103469.66;4860117;29;20045;-47
2022/01/23 15:09:18;;;;;;;24.83;20.60;;;;;;;7.03;97.82;103475.28;4863413;29;20041;-49
2022/01/23 15:11:47;;;;;;;26.38;20.48;;;;;;;7.01;98.20;103483.59;4863321;29;20045;-50
2022/01/23 15:14:15;;;;;;;26.08;21.20;;;;;;;7.01;98.74;103482.75;4863118;29;20045;-48